AAL2694 KLGA-KDFW
Flight info
| Callsign | AAL2694 |
|---|---|
| Flight time | 3h 8m |
| Altitude | 32000 |
| Route | PARKE J6 HVQ Q68 LITTR FEWWW SEEVR4 |
| Aircraft | B738/M-SDE2E3FGHIRWXY/LB1 |
Departure
| Time | 2026-05-04 18:15 |
|---|---|
| Airport | LaGuardia Airport (KLGA) |
Arrival
| Time | 2026-05-04 21:23 |
|---|---|
| Airport | Dallas Fort Worth International Airport (KDFW) |
| Time | Latitude | Longitude | Altitude | Speed | Heading |
|---|---|---|---|---|---|
| 2026-05-04 17:16 | 40.77544 | -73.87465 | 19 ft | 0 kts | 76° |
| 2026-05-04 18:03 | 40.77542 | -73.87474 | 19 ft | 4 kts | 76° |
| 2026-05-04 18:04 | 40.77536 | -73.87508 | 19 ft | 3 kts | 76° |
| 2026-05-04 18:04 | 40.77532 | -73.87535 | 19 ft | 4 kts | 87° |
| 2026-05-04 18:04 | 40.77541 | -73.87549 | 19 ft | 4 kts | 33° |
| 2026-05-04 18:05 | 40.77566 | -73.87534 | 19 ft | 4 kts | 25° |
| 2026-05-04 18:05 | 40.77581 | -73.87522 | 19 ft | 0 kts | 32° |
| 2026-05-04 18:08 | 40.77586 | -73.87518 | 19 ft | 2 kts | 32° |
| 2026-05-04 18:08 | 40.77616 | -73.87493 | 19 ft | 9 kts | 32° |
| 2026-05-04 18:09 | 40.77764 | -73.87397 | 17 ft | 14 kts | 70° |
| 2026-05-04 18:09 | 40.77725 | -73.87167 | 14 ft | 13 kts | 122° |
| 2026-05-04 18:10 | 40.77678 | -73.87068 | 14 ft | 13 kts | 122° |
| 2026-05-04 18:10 | 40.77631 | -73.86970 | 15 ft | 12 kts | 122° |
| 2026-05-04 18:10 | 40.77587 | -73.86875 | 14 ft | 12 kts | 121° |
| 2026-05-04 18:10 | 40.77603 | -73.86780 | 11 ft | 11 kts | 100° |
| 2026-05-04 18:11 | 40.77565 | -73.86693 | 11 ft | 11 kts | 120° |
| 2026-05-04 18:11 | 40.77528 | -73.86610 | 13 ft | 10 kts | 121° |
| 2026-05-04 18:11 | 40.77491 | -73.86530 | 11 ft | 10 kts | 121° |
| 2026-05-04 18:11 | 40.77455 | -73.86452 | 13 ft | 10 kts | 121° |
| 2026-05-04 18:12 | 40.77420 | -73.86376 | 11 ft | 10 kts | 121° |
| 2026-05-04 18:12 | 40.77386 | -73.86302 | 14 ft | 9 kts | 122° |
| 2026-05-04 18:12 | 40.77352 | -73.86230 | 13 ft | 9 kts | 122° |
| 2026-05-04 18:12 | 40.77314 | -73.86162 | 14 ft | 10 kts | 126° |
| 2026-05-04 18:13 | 40.77266 | -73.86067 | 13 ft | 15 kts | 122° |
| 2026-05-04 18:13 | 40.77208 | -73.85945 | 13 ft | 16 kts | 123° |
| 2026-05-04 18:13 | 40.77187 | -73.85751 | 13 ft | 10 kts | 39° |
| 2026-05-04 18:14 | 40.77228 | -73.85754 | 15 ft | 0 kts | 303° |
| 2026-05-04 18:14 | 40.77344 | -73.86002 | 15 ft | 70 kts | 302° |
| 2026-05-04 18:15 | 40.78331 | -73.88082 | 313 ft | 170 kts | 298° |
| 2026-05-04 18:15 | 40.79758 | -73.90903 | 1645 ft | 198 kts | 310° |
| 2026-05-04 18:15 | 40.81010 | -73.91885 | 2006 ft | 226 kts | 337° |
| 2026-05-04 18:16 | 40.82556 | -73.92551 | 2270 ft | 246 kts | 337° |
| 2026-05-04 18:16 | 40.84257 | -73.93307 | 2600 ft | 264 kts | 337° |
| 2026-05-04 18:16 | 40.85862 | -73.94463 | 3277 ft | 262 kts | 311° |
| 2026-05-04 18:17 | 40.86956 | -73.98650 | 4945 ft | 243 kts | 261° |
| 2026-05-04 18:17 | 40.86674 | -74.00863 | 5717 ft | 246 kts | 257° |
| 2026-05-04 18:17 | 40.85908 | -74.05340 | 7138 ft | 253 kts | 256° |
| 2026-05-04 18:18 | 40.85508 | -74.07617 | 7879 ft | 256 kts | 257° |
| 2026-05-04 18:18 | 40.85115 | -74.09890 | 8561 ft | 258 kts | 257° |
| 2026-05-04 18:18 | 40.84712 | -74.12220 | 9285 ft | 261 kts | 257° |
| 2026-05-04 18:18 | 40.84308 | -74.14570 | 9949 ft | 265 kts | 257° |
| 2026-05-04 18:19 | 40.83497 | -74.19333 | 11328 ft | 270 kts | 258° |
| 2026-05-04 18:19 | 40.83074 | -74.21843 | 11515 ft | 290 kts | 259° |
| 2026-05-04 18:19 | 40.82621 | -74.24531 | 11686 ft | 310 kts | 259° |
| 2026-05-04 18:20 | 40.82304 | -74.26409 | 11785 ft | 323 kts | 259° |
| 2026-05-04 18:20 | 40.81801 | -74.29386 | 11943 ft | 341 kts | 259° |
| 2026-05-04 18:20 | 40.81275 | -74.32501 | 12314 ft | 351 kts | 259° |
| 2026-05-04 18:20 | 40.80737 | -74.35679 | 12860 ft | 356 kts | 259° |
| 2026-05-04 18:21 | 40.80193 | -74.38876 | 13498 ft | 358 kts | 259° |
| 2026-05-04 18:21 | 40.79644 | -74.42098 | 14104 ft | 361 kts | 259° |
| 2026-05-04 18:21 | 40.79090 | -74.45346 | 14664 ft | 364 kts | 259° |
| 2026-05-04 18:21 | 40.78538 | -74.48585 | 15204 ft | 368 kts | 259° |
| 2026-05-04 18:22 | 40.77972 | -74.51894 | 15723 ft | 372 kts | 259° |
| 2026-05-04 18:22 | 40.77401 | -74.55231 | 16261 ft | 374 kts | 259° |
| 2026-05-04 18:22 | 40.76826 | -74.58589 | 16804 ft | 376 kts | 259° |
| 2026-05-04 18:22 | 40.76245 | -74.61972 | 17283 ft | 380 kts | 259° |
| 2026-05-04 18:23 | 40.75658 | -74.65387 | 17759 ft | 383 kts | 259° |
| 2026-05-04 18:23 | 40.75063 | -74.68831 | 18243 ft | 386 kts | 259° |
| 2026-05-04 18:23 | 40.74465 | -74.72289 | 18681 ft | 389 kts | 259° |
| 2026-05-04 18:23 | 40.73859 | -74.75789 | 19100 ft | 392 kts | 259° |
| 2026-05-04 18:24 | 40.73248 | -74.79311 | 19529 ft | 396 kts | 259° |
| 2026-05-04 18:24 | 40.72632 | -74.82859 | 19979 ft | 398 kts | 259° |
| 2026-05-04 18:24 | 40.72009 | -74.86436 | 20396 ft | 401 kts | 259° |
| 2026-05-04 18:24 | 40.71382 | -74.90032 | 20777 ft | 404 kts | 259° |
| 2026-05-04 18:25 | 40.70749 | -74.93654 | 21162 ft | 407 kts | 259° |
| 2026-05-04 18:25 | 40.70111 | -74.97300 | 21568 ft | 410 kts | 259° |
| 2026-05-04 18:25 | 40.69467 | -75.00972 | 21940 ft | 412 kts | 259° |
| 2026-05-04 18:25 | 40.68812 | -75.04665 | 22306 ft | 415 kts | 258° |
| 2026-05-04 18:26 | 40.67897 | -75.08290 | 22674 ft | 421 kts | 250° |
| 2026-05-04 18:26 | 40.66533 | -75.11733 | 23018 ft | 427 kts | 242° |
| 2026-05-04 18:26 | 40.64976 | -75.15081 | 23363 ft | 430 kts | 242° |
| 2026-05-04 18:26 | 40.63403 | -75.18443 | 23685 ft | 432 kts | 242° |
| 2026-05-04 18:27 | 40.61828 | -75.21833 | 24032 ft | 434 kts | 242° |
| 2026-05-04 18:27 | 40.60259 | -75.25238 | 24346 ft | 436 kts | 243° |
| 2026-05-04 18:27 | 40.58690 | -75.28663 | 24656 ft | 438 kts | 243° |
| 2026-05-04 18:27 | 40.57137 | -75.32059 | 24996 ft | 439 kts | 243° |
| 2026-05-04 18:28 | 40.55562 | -75.35502 | 25323 ft | 440 kts | 243° |
| 2026-05-04 18:28 | 40.53974 | -75.38965 | 25626 ft | 442 kts | 243° |
| 2026-05-04 18:28 | 40.52381 | -75.42433 | 25904 ft | 444 kts | 243° |
| 2026-05-04 18:28 | 40.50778 | -75.45921 | 26190 ft | 445 kts | 243° |
| 2026-05-04 18:29 | 40.49172 | -75.49413 | 26452 ft | 447 kts | 243° |
| 2026-05-04 18:29 | 40.47561 | -75.52913 | 26729 ft | 448 kts | 243° |
| 2026-05-04 18:29 | 40.45947 | -75.56415 | 27042 ft | 448 kts | 243° |
| 2026-05-04 18:29 | 40.44334 | -75.59910 | 27423 ft | 446 kts | 243° |
| 2026-05-04 18:30 | 40.41128 | -75.66848 | 28177 ft | 443 kts | 243° |
| 2026-05-04 18:30 | 40.39532 | -75.70302 | 28543 ft | 442 kts | 243° |
| 2026-05-04 18:30 | 40.37942 | -75.73746 | 28924 ft | 440 kts | 243° |
| 2026-05-04 18:31 | 40.36383 | -75.77117 | 29283 ft | 438 kts | 244° |
| 2026-05-04 18:31 | 40.34804 | -75.80528 | 29611 ft | 437 kts | 244° |
| 2026-05-04 18:31 | 40.33223 | -75.83937 | 29924 ft | 436 kts | 244° |
| 2026-05-04 18:31 | 40.31645 | -75.87320 | 30250 ft | 435 kts | 244° |
| 2026-05-04 18:32 | 40.30064 | -75.90698 | 30552 ft | 434 kts | 244° |
| 2026-05-04 18:32 | 40.28484 | -75.94071 | 30775 ft | 435 kts | 244° |
| 2026-05-04 18:32 | 40.26897 | -75.97456 | 31045 ft | 435 kts | 244° |
| 2026-05-04 18:32 | 40.25316 | -76.00827 | 31319 ft | 434 kts | 244° |
| 2026-05-04 18:33 | 40.23736 | -76.04194 | 31590 ft | 434 kts | 244° |
| 2026-05-04 18:33 | 40.22155 | -76.07559 | 31858 ft | 433 kts | 243° |
| 2026-05-04 18:33 | 40.20572 | -76.10927 | 31920 ft | 436 kts | 244° |
| 2026-05-04 18:34 | 40.17380 | -76.17709 | 31930 ft | 436 kts | 243° |
| 2026-05-04 18:34 | 40.14230 | -76.24378 | 31930 ft | 431 kts | 243° |
| 2026-05-04 18:35 | 40.11086 | -76.31046 | 31930 ft | 430 kts | 244° |
| 2026-05-04 18:35 | 40.08013 | -76.37732 | 31933 ft | 429 kts | 244° |
| 2026-05-04 18:36 | 40.04936 | -76.44427 | 31940 ft | 430 kts | 244° |
| 2026-05-04 18:36 | 40.01841 | -76.51119 | 31935 ft | 430 kts | 244° |
| 2026-05-04 18:37 | 39.98748 | -76.57798 | 31934 ft | 431 kts | 244° |
| 2026-05-04 18:37 | 39.95644 | -76.64493 | 31934 ft | 432 kts | 244° |
| 2026-05-04 18:38 | 39.92527 | -76.71199 | 31931 ft | 433 kts | 244° |
| 2026-05-04 18:38 | 39.89393 | -76.77907 | 31947 ft | 434 kts | 244° |
| 2026-05-04 18:39 | 39.86244 | -76.84627 | 31946 ft | 434 kts | 243° |
| 2026-05-04 18:39 | 39.83115 | -76.91297 | 31949 ft | 434 kts | 243° |
| 2026-05-04 18:40 | 39.79962 | -76.98009 | 31941 ft | 435 kts | 243° |
| 2026-05-04 18:40 | 39.76804 | -77.04716 | 31954 ft | 434 kts | 243° |
| 2026-05-04 18:41 | 39.73649 | -77.11404 | 31955 ft | 434 kts | 243° |
| 2026-05-04 18:41 | 39.70489 | -77.18088 | 31958 ft | 433 kts | 243° |
| 2026-05-04 18:42 | 39.67327 | -77.24757 | 31963 ft | 433 kts | 243° |
| 2026-05-04 18:42 | 39.64166 | -77.31416 | 31963 ft | 433 kts | 243° |
| 2026-05-04 18:43 | 39.61023 | -77.38023 | 31970 ft | 433 kts | 243° |
| 2026-05-04 18:43 | 39.57857 | -77.44667 | 31971 ft | 433 kts | 243° |
| 2026-05-04 18:44 | 39.54684 | -77.51314 | 31973 ft | 433 kts | 243° |
| 2026-05-04 18:44 | 39.51505 | -77.57961 | 31963 ft | 434 kts | 243° |
| 2026-05-04 18:45 | 39.48337 | -77.64571 | 31964 ft | 434 kts | 243° |
| 2026-05-04 18:45 | 39.45146 | -77.71213 | 31953 ft | 435 kts | 243° |
| 2026-05-04 18:46 | 39.41945 | -77.77862 | 31940 ft | 436 kts | 243° |
| 2026-05-04 18:46 | 39.38738 | -77.84523 | 31933 ft | 435 kts | 244° |
| 2026-05-04 18:47 | 39.35888 | -77.91383 | 31935 ft | 432 kts | 248° |
| 2026-05-04 18:47 | 39.33186 | -77.98313 | 31925 ft | 431 kts | 248° |
| 2026-05-04 18:48 | 39.30471 | -78.05226 | 31927 ft | 431 kts | 248° |
| 2026-05-04 18:48 | 39.27731 | -78.12115 | 31929 ft | 431 kts | 247° |
| 2026-05-04 18:49 | 39.25004 | -78.18939 | 31917 ft | 430 kts | 247° |
| 2026-05-04 18:49 | 39.22254 | -78.25794 | 31914 ft | 429 kts | 247° |
| 2026-05-04 18:50 | 39.19507 | -78.32628 | 31916 ft | 429 kts | 247° |
| 2026-05-04 18:50 | 39.16765 | -78.39437 | 31919 ft | 427 kts | 247° |
| 2026-05-04 18:51 | 39.14021 | -78.46235 | 31922 ft | 427 kts | 247° |
| 2026-05-04 18:51 | 39.11277 | -78.53021 | 31926 ft | 426 kts | 247° |
| 2026-05-04 18:52 | 39.08554 | -78.59743 | 31928 ft | 426 kts | 247° |
| 2026-05-04 18:52 | 39.05815 | -78.66489 | 31931 ft | 425 kts | 247° |
| 2026-05-04 18:53 | 39.03073 | -78.73224 | 31926 ft | 425 kts | 247° |
| 2026-05-04 18:53 | 39.00330 | -78.79953 | 31928 ft | 424 kts | 247° |
| 2026-05-04 18:54 | 38.97582 | -78.86674 | 31933 ft | 424 kts | 247° |
| 2026-05-04 18:54 | 38.94826 | -78.93395 | 31919 ft | 424 kts | 247° |
| 2026-05-04 18:55 | 38.92075 | -79.00098 | 31916 ft | 424 kts | 247° |
| 2026-05-04 18:55 | 38.87939 | -79.10152 | 31919 ft | 424 kts | 247° |
| 2026-05-04 18:56 | 38.85204 | -79.16786 | 31921 ft | 423 kts | 247° |
| 2026-05-04 18:56 | 38.83182 | -79.23767 | 31920 ft | 414 kts | 261° |
| 2026-05-04 18:57 | 38.81939 | -79.30984 | 31919 ft | 413 kts | 261° |
| 2026-05-04 18:57 | 38.80674 | -79.38174 | 31929 ft | 413 kts | 261° |
| 2026-05-04 18:58 | 38.79389 | -79.45343 | 31946 ft | 412 kts | 261° |
| 2026-05-04 18:58 | 38.78094 | -79.52493 | 31951 ft | 411 kts | 261° |
| 2026-05-04 18:59 | 38.76794 | -79.59632 | 31949 ft | 412 kts | 261° |
| 2026-05-04 18:59 | 38.75491 | -79.66776 | 31959 ft | 412 kts | 261° |
| 2026-05-04 19:00 | 38.74190 | -79.73884 | 31961 ft | 412 kts | 261° |
| 2026-05-04 19:00 | 38.72878 | -79.81020 | 31961 ft | 411 kts | 261° |
| 2026-05-04 19:01 | 38.71560 | -79.88170 | 31955 ft | 412 kts | 261° |
| 2026-05-04 19:01 | 38.70238 | -79.95308 | 31962 ft | 412 kts | 260° |
| 2026-05-04 19:02 | 38.68911 | -80.02451 | 31948 ft | 412 kts | 260° |
| 2026-05-04 19:02 | 38.67584 | -80.09565 | 31951 ft | 411 kts | 260° |
| 2026-05-04 19:03 | 38.66263 | -80.16624 | 31956 ft | 410 kts | 260° |
| 2026-05-04 19:03 | 38.64930 | -80.23722 | 31950 ft | 410 kts | 260° |
| 2026-05-04 19:04 | 38.63593 | -80.30811 | 31955 ft | 409 kts | 260° |
| 2026-05-04 19:04 | 38.62481 | -80.36700 | 31941 ft | 409 kts | 260° |
| 2026-05-04 19:05 | 38.60922 | -80.44918 | 31948 ft | 409 kts | 260° |
| 2026-05-04 19:05 | 38.59577 | -80.51990 | 31929 ft | 409 kts | 260° |
| 2026-05-04 19:06 | 38.58455 | -80.57868 | 31939 ft | 409 kts | 260° |
| 2026-05-04 19:06 | 38.57101 | -80.64933 | 31933 ft | 410 kts | 259° |
| 2026-05-04 19:07 | 38.55740 | -80.72008 | 31938 ft | 410 kts | 259° |
| 2026-05-04 19:07 | 38.54374 | -80.79088 | 31940 ft | 411 kts | 259° |
| 2026-05-04 19:08 | 38.53001 | -80.86186 | 31937 ft | 412 kts | 259° |
| 2026-05-04 19:08 | 38.51626 | -80.93266 | 31948 ft | 413 kts | 259° |
| 2026-05-04 19:09 | 38.50237 | -81.00387 | 31948 ft | 414 kts | 259° |
| 2026-05-04 19:09 | 38.48843 | -81.07517 | 31948 ft | 414 kts | 259° |
| 2026-05-04 19:10 | 38.47439 | -81.14671 | 31940 ft | 415 kts | 259° |
| 2026-05-04 19:10 | 38.46031 | -81.21823 | 31947 ft | 415 kts | 259° |
| 2026-05-04 19:11 | 38.44615 | -81.28988 | 31944 ft | 416 kts | 258° |
| 2026-05-04 19:11 | 38.43205 | -81.36092 | 31949 ft | 416 kts | 258° |
| 2026-05-04 19:12 | 38.41069 | -81.46818 | 31936 ft | 416 kts | 258° |
| 2026-05-04 19:13 | 38.39639 | -81.53974 | 31947 ft | 415 kts | 258° |
| 2026-05-04 19:13 | 38.38205 | -81.61114 | 31943 ft | 415 kts | 258° |
| 2026-05-04 19:14 | 38.36769 | -81.68242 | 31938 ft | 415 kts | 258° |
| 2026-05-04 19:14 | 38.35339 | -81.75319 | 31939 ft | 414 kts | 258° |
| 2026-05-04 19:15 | 38.33573 | -81.82321 | 31953 ft | 415 kts | 253° |
| 2026-05-04 19:15 | 38.31597 | -81.89223 | 31951 ft | 415 kts | 253° |
| 2026-05-04 19:16 | 38.29627 | -81.96123 | 31952 ft | 415 kts | 253° |
| 2026-05-04 19:16 | 38.27671 | -82.03033 | 31953 ft | 414 kts | 253° |
| 2026-05-04 19:17 | 38.25719 | -82.09922 | 31953 ft | 413 kts | 253° |
| 2026-05-04 19:17 | 38.23781 | -82.16763 | 31953 ft | 413 kts | 253° |
| 2026-05-04 19:18 | 38.21827 | -82.23639 | 31948 ft | 414 kts | 253° |
| 2026-05-04 19:18 | 38.19861 | -82.30535 | 31943 ft | 414 kts | 253° |
| 2026-05-04 19:19 | 38.17892 | -82.37428 | 31947 ft | 415 kts | 253° |
| 2026-05-04 19:19 | 38.15933 | -82.44290 | 31942 ft | 416 kts | 253° |
| 2026-05-04 19:20 | 38.13954 | -82.51203 | 31950 ft | 417 kts | 253° |
| 2026-05-04 19:20 | 38.11968 | -82.58129 | 31947 ft | 417 kts | 253° |
| 2026-05-04 19:21 | 38.09975 | -82.65058 | 31937 ft | 418 kts | 253° |
| 2026-05-04 19:21 | 38.07977 | -82.71989 | 31947 ft | 418 kts | 253° |
| 2026-05-04 19:22 | 38.05972 | -82.78920 | 31943 ft | 418 kts | 253° |
| 2026-05-04 19:22 | 38.03966 | -82.85841 | 31952 ft | 417 kts | 253° |
| 2026-05-04 19:23 | 38.01971 | -82.92705 | 31956 ft | 417 kts | 252° |
| 2026-05-04 19:23 | 37.99960 | -82.99605 | 31954 ft | 417 kts | 252° |
| 2026-05-04 19:24 | 37.97944 | -83.06511 | 31958 ft | 416 kts | 253° |
| 2026-05-04 19:24 | 37.95930 | -83.13383 | 31953 ft | 415 kts | 253° |
| 2026-05-04 19:25 | 37.93916 | -83.20248 | 31958 ft | 414 kts | 252° |
| 2026-05-04 19:25 | 37.91918 | -83.27037 | 31964 ft | 414 kts | 252° |
| 2026-05-04 19:26 | 37.89903 | -83.33865 | 31962 ft | 413 kts | 252° |
| 2026-05-04 19:26 | 37.87890 | -83.40674 | 31962 ft | 413 kts | 252° |
| 2026-05-04 19:27 | 37.85871 | -83.47483 | 31964 ft | 412 kts | 252° |
| 2026-05-04 19:27 | 37.83852 | -83.54274 | 31965 ft | 412 kts | 252° |
| 2026-05-04 19:28 | 37.81838 | -83.61031 | 31963 ft | 413 kts | 252° |
| 2026-05-04 19:28 | 37.79808 | -83.67830 | 31956 ft | 413 kts | 252° |
| 2026-05-04 19:29 | 37.77770 | -83.74637 | 31960 ft | 414 kts | 252° |
| 2026-05-04 19:29 | 37.75722 | -83.81462 | 31957 ft | 415 kts | 252° |
| 2026-05-04 19:30 | 37.73678 | -83.88250 | 31954 ft | 416 kts | 252° |
| 2026-05-04 19:30 | 37.71608 | -83.95116 | 31952 ft | 416 kts | 252° |
| 2026-05-04 19:31 | 37.69558 | -84.01896 | 31955 ft | 416 kts | 252° |
| 2026-05-04 19:31 | 37.67488 | -84.08724 | 31951 ft | 416 kts | 252° |
| 2026-05-04 19:32 | 37.65414 | -84.15551 | 31955 ft | 416 kts | 252° |
| 2026-05-04 19:32 | 37.63328 | -84.22365 | 31963 ft | 416 kts | 252° |
| 2026-05-04 19:33 | 37.61240 | -84.29162 | 31960 ft | 415 kts | 252° |
| 2026-05-04 19:33 | 37.59146 | -84.35960 | 31964 ft | 415 kts | 252° |
| 2026-05-04 19:34 | 37.57054 | -84.42738 | 31960 ft | 414 kts | 252° |
| 2026-05-04 19:34 | 37.54972 | -84.49471 | 31961 ft | 414 kts | 252° |
| 2026-05-04 19:35 | 37.52880 | -84.56225 | 31963 ft | 414 kts | 252° |
| 2026-05-04 19:35 | 37.50784 | -84.62979 | 31962 ft | 414 kts | 252° |
| 2026-05-04 19:36 | 37.48686 | -84.69718 | 31960 ft | 413 kts | 252° |
| 2026-05-04 19:36 | 37.46592 | -84.76466 | 31958 ft | 413 kts | 252° |
| 2026-05-04 19:37 | 37.44519 | -84.83210 | 31964 ft | 413 kts | 252° |
| 2026-05-04 19:37 | 37.42438 | -84.89952 | 31963 ft | 414 kts | 252° |
| 2026-05-04 19:38 | 37.40364 | -84.96658 | 31966 ft | 414 kts | 252° |
| 2026-05-04 19:38 | 37.38267 | -85.03410 | 31966 ft | 415 kts | 252° |
| 2026-05-04 19:39 | 37.36134 | -85.10188 | 32040 ft | 420 kts | 252° |
| 2026-05-04 19:39 | 37.35059 | -85.13594 | 32315 ft | 418 kts | 252° |
| 2026-05-04 19:39 | 37.33987 | -85.16980 | 32678 ft | 415 kts | 252° |
| 2026-05-04 19:39 | 37.32923 | -85.20341 | 32987 ft | 413 kts | 252° |
| 2026-05-04 19:40 | 37.31860 | -85.23701 | 33242 ft | 413 kts | 252° |
| 2026-05-04 19:40 | 37.30800 | -85.27048 | 33461 ft | 413 kts | 252° |
| 2026-05-04 19:40 | 37.29750 | -85.30363 | 33692 ft | 413 kts | 251° |
| 2026-05-04 19:40 | 37.28688 | -85.33703 | 33998 ft | 410 kts | 251° |
| 2026-05-04 19:41 | 37.27632 | -85.37022 | 34239 ft | 409 kts | 251° |
| 2026-05-04 19:41 | 37.26577 | -85.40343 | 34415 ft | 410 kts | 251° |
| 2026-05-04 19:41 | 37.25520 | -85.43666 | 34589 ft | 411 kts | 251° |
| 2026-05-04 19:41 | 37.24458 | -85.46999 | 34759 ft | 411 kts | 251° |
| 2026-05-04 19:42 | 37.23395 | -85.50333 | 34979 ft | 410 kts | 251° |
| 2026-05-04 19:42 | 37.22333 | -85.53660 | 35124 ft | 411 kts | 251° |
| 2026-05-04 19:42 | 37.21265 | -85.57002 | 35261 ft | 412 kts | 251° |
| 2026-05-04 19:42 | 37.20194 | -85.60346 | 35431 ft | 412 kts | 251° |
| 2026-05-04 19:43 | 37.19126 | -85.63675 | 35630 ft | 412 kts | 251° |
| 2026-05-04 19:43 | 37.18056 | -85.67006 | 35803 ft | 411 kts | 251° |
| 2026-05-04 19:43 | 37.16988 | -85.70329 | 35932 ft | 411 kts | 251° |
| 2026-05-04 19:44 | 37.14849 | -85.76975 | 35947 ft | 414 kts | 251° |
| 2026-05-04 19:44 | 37.12692 | -85.83653 | 35949 ft | 411 kts | 251° |
| 2026-05-04 19:45 | 37.10550 | -85.90276 | 35941 ft | 409 kts | 251° |
| 2026-05-04 19:45 | 37.08423 | -85.96857 | 35938 ft | 407 kts | 251° |
| 2026-05-04 19:46 | 37.06285 | -86.03428 | 35933 ft | 406 kts | 251° |
| 2026-05-04 19:46 | 37.04151 | -86.09973 | 35940 ft | 406 kts | 251° |
| 2026-05-04 19:47 | 37.02014 | -86.16529 | 35937 ft | 408 kts | 251° |
| 2026-05-04 19:47 | 36.99862 | -86.23107 | 35940 ft | 410 kts | 251° |
| 2026-05-04 19:48 | 36.97693 | -86.29725 | 35940 ft | 412 kts | 251° |
| 2026-05-04 19:48 | 36.95512 | -86.36366 | 35938 ft | 414 kts | 251° |
| 2026-05-04 19:49 | 36.93329 | -86.42999 | 35936 ft | 415 kts | 251° |
| 2026-05-04 19:49 | 36.91037 | -86.49643 | 35935 ft | 416 kts | 249° |
| 2026-05-04 19:50 | 36.88640 | -86.56238 | 35934 ft | 416 kts | 249° |
| 2026-05-04 19:50 | 36.86251 | -86.62822 | 35934 ft | 416 kts | 249° |
| 2026-05-04 19:51 | 36.83869 | -86.69408 | 35935 ft | 415 kts | 249° |
| 2026-05-04 19:51 | 36.81510 | -86.75934 | 35933 ft | 414 kts | 249° |
| 2026-05-04 19:52 | 36.79140 | -86.82486 | 35923 ft | 414 kts | 249° |
| 2026-05-04 19:52 | 36.77170 | -86.87915 | 35924 ft | 413 kts | 249° |
| 2026-05-04 19:53 | 36.74802 | -86.94430 | 35925 ft | 412 kts | 249° |
| 2026-05-04 19:53 | 36.72439 | -87.00920 | 35924 ft | 411 kts | 249° |
| 2026-05-04 19:54 | 36.70072 | -87.07403 | 35929 ft | 410 kts | 249° |
| 2026-05-04 19:54 | 36.67701 | -87.13888 | 35922 ft | 411 kts | 249° |
| 2026-05-04 19:55 | 36.65343 | -87.20326 | 35925 ft | 411 kts | 249° |
| 2026-05-04 19:55 | 36.62961 | -87.26813 | 35924 ft | 412 kts | 249° |
| 2026-05-04 19:56 | 36.60573 | -87.33299 | 35926 ft | 412 kts | 249° |
| 2026-05-04 19:56 | 36.58177 | -87.39804 | 35938 ft | 413 kts | 249° |
| 2026-05-04 19:57 | 36.55767 | -87.46321 | 35941 ft | 414 kts | 249° |
| 2026-05-04 19:57 | 36.53359 | -87.52827 | 35954 ft | 414 kts | 249° |
| 2026-05-04 19:58 | 36.50961 | -87.59295 | 35953 ft | 415 kts | 249° |
| 2026-05-04 19:58 | 36.48537 | -87.65820 | 35957 ft | 415 kts | 249° |
| 2026-05-04 19:59 | 36.46112 | -87.72331 | 35948 ft | 415 kts | 249° |
| 2026-05-04 19:59 | 36.43676 | -87.78856 | 35942 ft | 416 kts | 249° |
| 2026-05-04 20:00 | 36.41244 | -87.85366 | 35940 ft | 416 kts | 249° |
| 2026-05-04 20:00 | 36.38823 | -87.91831 | 35935 ft | 415 kts | 248° |
| 2026-05-04 20:01 | 36.36383 | -87.98329 | 35935 ft | 415 kts | 248° |
| 2026-05-04 20:01 | 36.33942 | -88.04818 | 35927 ft | 415 kts | 248° |
| 2026-05-04 20:02 | 36.31497 | -88.11303 | 35926 ft | 415 kts | 248° |
| 2026-05-04 20:02 | 36.29050 | -88.17782 | 35925 ft | 415 kts | 248° |
| 2026-05-04 20:03 | 36.26600 | -88.24253 | 35930 ft | 414 kts | 248° |
| 2026-05-04 20:03 | 36.24163 | -88.30680 | 35918 ft | 414 kts | 248° |
| 2026-05-04 20:04 | 36.21709 | -88.37143 | 35917 ft | 414 kts | 248° |
| 2026-05-04 20:04 | 36.19252 | -88.43596 | 35912 ft | 414 kts | 248° |
| 2026-05-04 20:05 | 36.16788 | -88.50047 | 35928 ft | 414 kts | 248° |
| 2026-05-04 20:05 | 36.14325 | -88.56492 | 35927 ft | 414 kts | 248° |
| 2026-05-04 20:06 | 36.11866 | -88.62901 | 35924 ft | 415 kts | 248° |
| 2026-05-04 20:06 | 36.09387 | -88.69344 | 35926 ft | 415 kts | 248° |
| 2026-05-04 20:07 | 36.06900 | -88.75798 | 35923 ft | 416 kts | 248° |
| 2026-05-04 20:07 | 36.04410 | -88.82246 | 35925 ft | 416 kts | 248° |
| 2026-05-04 20:08 | 36.01915 | -88.88699 | 35924 ft | 416 kts | 248° |
| 2026-05-04 20:08 | 35.99416 | -88.95148 | 35925 ft | 416 kts | 248° |
| 2026-05-04 20:09 | 35.96913 | -89.01594 | 35928 ft | 416 kts | 248° |
| 2026-05-04 20:09 | 35.94419 | -89.08005 | 35928 ft | 417 kts | 248° |
| 2026-05-04 20:10 | 35.91905 | -89.14451 | 35924 ft | 417 kts | 248° |
| 2026-05-04 20:10 | 35.89387 | -89.20898 | 35929 ft | 417 kts | 248° |
| 2026-05-04 20:11 | 35.86867 | -89.27338 | 35924 ft | 417 kts | 248° |
| 2026-05-04 20:11 | 35.84341 | -89.33773 | 35930 ft | 417 kts | 248° |
| 2026-05-04 20:12 | 35.81808 | -89.40218 | 35923 ft | 417 kts | 248° |
| 2026-05-04 20:12 | 35.79277 | -89.46650 | 35925 ft | 417 kts | 248° |
| 2026-05-04 20:13 | 35.76740 | -89.53088 | 35928 ft | 418 kts | 248° |
| 2026-05-04 20:13 | 35.74196 | -89.59520 | 35938 ft | 418 kts | 248° |
| 2026-05-04 20:14 | 35.71650 | -89.65948 | 35933 ft | 418 kts | 248° |
| 2026-05-04 20:14 | 35.69114 | -89.72333 | 35933 ft | 418 kts | 248° |
| 2026-05-04 20:15 | 35.66558 | -89.78758 | 35940 ft | 418 kts | 248° |
| 2026-05-04 20:15 | 35.64001 | -89.85176 | 35935 ft | 418 kts | 248° |
| 2026-05-04 20:16 | 35.61436 | -89.91605 | 35925 ft | 418 kts | 248° |
| 2026-05-04 20:16 | 35.58863 | -89.98033 | 35912 ft | 419 kts | 248° |
| 2026-05-04 20:17 | 35.56291 | -90.04451 | 35919 ft | 419 kts | 248° |
| 2026-05-04 20:17 | 35.53717 | -90.10863 | 35918 ft | 418 kts | 248° |
| 2026-05-04 20:18 | 35.51160 | -90.17236 | 35924 ft | 418 kts | 248° |
| 2026-05-04 20:18 | 35.48585 | -90.23621 | 35923 ft | 417 kts | 248° |
| 2026-05-04 20:19 | 35.45998 | -90.30015 | 35915 ft | 417 kts | 248° |
| 2026-05-04 20:19 | 35.43420 | -90.36381 | 35918 ft | 417 kts | 248° |
| 2026-05-04 20:20 | 35.40840 | -90.42742 | 35917 ft | 417 kts | 249° |
| 2026-05-04 20:20 | 35.38254 | -90.49105 | 35927 ft | 416 kts | 249° |
| 2026-05-04 20:21 | 35.35697 | -90.55414 | 35936 ft | 415 kts | 249° |
| 2026-05-04 20:21 | 35.31862 | -90.64827 | 35935 ft | 411 kts | 249° |
| 2026-05-04 20:22 | 35.29294 | -90.71094 | 35923 ft | 412 kts | 249° |
| 2026-05-04 20:22 | 35.26715 | -90.77367 | 35933 ft | 412 kts | 249° |
| 2026-05-04 20:23 | 35.24151 | -90.83606 | 35926 ft | 413 kts | 249° |
| 2026-05-04 20:23 | 35.21565 | -90.89891 | 35923 ft | 413 kts | 249° |
| 2026-05-04 20:24 | 35.18976 | -90.96174 | 35927 ft | 414 kts | 249° |
| 2026-05-04 20:24 | 35.16375 | -91.02472 | 35926 ft | 414 kts | 250° |
| 2026-05-04 20:25 | 35.13781 | -91.08744 | 35926 ft | 414 kts | 250° |
| 2026-05-04 20:25 | 35.11191 | -91.14993 | 35925 ft | 414 kts | 250° |
| 2026-05-04 20:26 | 35.08588 | -91.21252 | 35923 ft | 413 kts | 250° |
| 2026-05-04 20:26 | 35.05987 | -91.27502 | 35928 ft | 412 kts | 250° |
| 2026-05-04 20:27 | 35.03387 | -91.33744 | 35923 ft | 412 kts | 250° |
| 2026-05-04 20:27 | 35.00783 | -91.39983 | 35924 ft | 412 kts | 250° |
| 2026-05-04 20:28 | 34.98200 | -91.46156 | 35926 ft | 410 kts | 250° |
| 2026-05-04 20:28 | 34.95606 | -91.52344 | 35920 ft | 409 kts | 250° |
| 2026-05-04 20:29 | 34.93010 | -91.58524 | 35917 ft | 409 kts | 250° |
| 2026-05-04 20:29 | 34.90416 | -91.64692 | 35929 ft | 407 kts | 250° |
| 2026-05-04 20:30 | 34.87848 | -91.70786 | 35917 ft | 407 kts | 251° |
| 2026-05-04 20:30 | 34.85258 | -91.76924 | 35909 ft | 406 kts | 251° |
| 2026-05-04 20:31 | 34.82673 | -91.83037 | 35909 ft | 406 kts | 251° |
| 2026-05-04 20:31 | 34.80087 | -91.89141 | 35912 ft | 405 kts | 251° |
| 2026-05-04 20:32 | 34.77502 | -91.95230 | 35916 ft | 404 kts | 251° |
| 2026-05-04 20:32 | 34.74938 | -92.01262 | 35930 ft | 404 kts | 251° |
| 2026-05-04 20:33 | 34.72355 | -92.07327 | 35931 ft | 403 kts | 252° |
| 2026-05-04 20:33 | 34.69773 | -92.13379 | 35935 ft | 403 kts | 252° |
| 2026-05-04 20:34 | 34.67343 | -92.19471 | 35922 ft | 393 kts | 259° |
| 2026-05-04 20:34 | 34.65660 | -92.25746 | 35934 ft | 390 kts | 260° |
| 2026-05-04 20:35 | 34.63976 | -92.32004 | 35936 ft | 390 kts | 260° |
| 2026-05-04 20:35 | 34.62287 | -92.38212 | 35926 ft | 390 kts | 260° |
| 2026-05-04 20:36 | 34.60579 | -92.44465 | 35926 ft | 390 kts | 260° |
| 2026-05-04 20:36 | 34.58866 | -92.50713 | 35926 ft | 390 kts | 260° |
| 2026-05-04 20:37 | 34.57146 | -92.56967 | 35928 ft | 390 kts | 260° |
| 2026-05-04 20:37 | 34.55426 | -92.63214 | 35926 ft | 390 kts | 260° |
| 2026-05-04 20:38 | 34.53713 | -92.69417 | 35927 ft | 390 kts | 260° |
| 2026-05-04 20:38 | 34.51975 | -92.75700 | 35935 ft | 390 kts | 260° |
| 2026-05-04 20:39 | 34.50244 | -92.81939 | 35934 ft | 391 kts | 260° |
| 2026-05-04 20:39 | 34.48803 | -92.87126 | 35939 ft | 391 kts | 260° |
| 2026-05-04 20:40 | 34.46780 | -92.94384 | 35937 ft | 389 kts | 260° |
| 2026-05-04 20:40 | 34.45324 | -92.99598 | 35947 ft | 389 kts | 261° |
| 2026-05-04 20:41 | 34.43598 | -93.05770 | 35946 ft | 389 kts | 261° |
| 2026-05-04 20:41 | 34.41859 | -93.11971 | 35947 ft | 389 kts | 261° |
| 2026-05-04 20:42 | 34.40116 | -93.18180 | 35946 ft | 389 kts | 261° |
| 2026-05-04 20:42 | 34.38371 | -93.24372 | 35953 ft | 388 kts | 261° |
| 2026-05-04 20:43 | 34.36637 | -93.30516 | 35943 ft | 387 kts | 261° |
| 2026-05-04 20:43 | 34.34893 | -93.36683 | 35931 ft | 386 kts | 261° |
| 2026-05-04 20:44 | 34.33149 | -93.42830 | 35930 ft | 385 kts | 261° |
| 2026-05-04 20:44 | 34.31409 | -93.48953 | 35938 ft | 384 kts | 261° |
| 2026-05-04 20:45 | 34.29673 | -93.55056 | 35929 ft | 383 kts | 261° |
| 2026-05-04 20:45 | 34.27938 | -93.61136 | 35924 ft | 382 kts | 261° |
| 2026-05-04 20:46 | 34.26202 | -93.67209 | 35917 ft | 381 kts | 261° |
| 2026-05-04 20:46 | 34.24480 | -93.73220 | 35914 ft | 381 kts | 262° |
| 2026-05-04 20:47 | 34.22749 | -93.79255 | 35912 ft | 380 kts | 262° |
| 2026-05-04 20:47 | 34.21016 | -93.85285 | 35918 ft | 379 kts | 262° |
| 2026-05-04 20:48 | 34.19276 | -93.91306 | 35918 ft | 380 kts | 261° |
| 2026-05-04 20:48 | 34.17448 | -93.97316 | 35915 ft | 381 kts | 261° |
| 2026-05-04 20:49 | 34.15606 | -94.03277 | 35913 ft | 381 kts | 261° |
| 2026-05-04 20:49 | 34.13755 | -94.09279 | 35916 ft | 380 kts | 261° |
| 2026-05-04 20:50 | 34.11912 | -94.15260 | 35912 ft | 380 kts | 261° |
| 2026-05-04 20:50 | 34.10065 | -94.21252 | 35925 ft | 381 kts | 261° |
| 2026-05-04 20:51 | 34.08216 | -94.27241 | 35916 ft | 381 kts | 261° |
| 2026-05-04 20:51 | 34.06361 | -94.33229 | 35918 ft | 381 kts | 261° |
| 2026-05-04 20:52 | 34.04507 | -94.39212 | 35915 ft | 381 kts | 261° |
| 2026-05-04 20:52 | 34.02660 | -94.45166 | 35918 ft | 381 kts | 260° |
| 2026-05-04 20:53 | 34.00795 | -94.51163 | 35913 ft | 382 kts | 260° |
| 2026-05-04 20:53 | 33.98925 | -94.57154 | 35912 ft | 381 kts | 260° |
| 2026-05-04 20:54 | 33.97056 | -94.63127 | 35917 ft | 380 kts | 260° |
| 2026-05-04 20:54 | 33.95204 | -94.69042 | 35909 ft | 380 kts | 260° |
| 2026-05-04 20:55 | 33.93337 | -94.74994 | 35916 ft | 380 kts | 260° |
| 2026-05-04 20:55 | 33.91463 | -94.80950 | 35902 ft | 379 kts | 260° |
| 2026-05-04 20:56 | 33.89601 | -94.86880 | 35912 ft | 379 kts | 260° |
| 2026-05-04 20:56 | 33.87735 | -94.92775 | 35905 ft | 379 kts | 260° |
| 2026-05-04 20:57 | 33.86787 | -94.95777 | 35632 ft | 383 kts | 260° |
| 2026-05-04 20:57 | 33.85843 | -94.98778 | 35123 ft | 383 kts | 260° |
| 2026-05-04 20:57 | 33.84907 | -95.01736 | 34540 ft | 381 kts | 259° |
| 2026-05-04 20:57 | 33.83959 | -95.04722 | 33849 ft | 382 kts | 259° |
| 2026-05-04 20:58 | 33.83010 | -95.07714 | 33184 ft | 383 kts | 259° |
| 2026-05-04 20:58 | 33.82058 | -95.10717 | 32479 ft | 384 kts | 258° |
| 2026-05-04 20:58 | 33.81101 | -95.13724 | 31772 ft | 386 kts | 258° |
| 2026-05-04 20:58 | 33.80147 | -95.16719 | 31281 ft | 381 kts | 257° |
| 2026-05-04 20:59 | 33.79199 | -95.19684 | 30764 ft | 378 kts | 257° |
| 2026-05-04 20:59 | 33.78257 | -95.22624 | 30275 ft | 375 kts | 257° |
| 2026-05-04 20:59 | 33.77324 | -95.25539 | 29786 ft | 372 kts | 257° |
| 2026-05-04 20:59 | 33.76415 | -95.28392 | 29309 ft | 370 kts | 256° |
| 2026-05-04 21:00 | 33.75498 | -95.31266 | 28819 ft | 366 kts | 256° |
| 2026-05-04 21:00 | 33.74583 | -95.34132 | 28332 ft | 368 kts | 256° |
| 2026-05-04 21:00 | 33.73650 | -95.37045 | 27847 ft | 381 kts | 256° |
| 2026-05-04 21:00 | 33.72682 | -95.40052 | 27326 ft | 386 kts | 255° |
| 2026-05-04 21:01 | 33.71713 | -95.43039 | 26795 ft | 383 kts | 256° |
| 2026-05-04 21:01 | 33.70753 | -95.46001 | 26277 ft | 379 kts | 255° |
| 2026-05-04 21:01 | 33.69801 | -95.48941 | 25763 ft | 376 kts | 255° |
| 2026-05-04 21:01 | 33.68854 | -95.51867 | 25254 ft | 373 kts | 255° |
| 2026-05-04 21:02 | 33.67914 | -95.54766 | 24759 ft | 370 kts | 255° |
| 2026-05-04 21:02 | 33.66984 | -95.57629 | 24268 ft | 367 kts | 254° |
| 2026-05-04 21:02 | 33.66057 | -95.60483 | 23780 ft | 365 kts | 254° |
| 2026-05-04 21:02 | 33.65150 | -95.63275 | 23299 ft | 363 kts | 254° |
| 2026-05-04 21:03 | 33.64235 | -95.66086 | 22816 ft | 360 kts | 254° |
| 2026-05-04 21:03 | 33.63326 | -95.68876 | 22342 ft | 358 kts | 254° |
| 2026-05-04 21:03 | 33.62421 | -95.71653 | 21828 ft | 356 kts | 253° |
| 2026-05-04 21:03 | 33.61517 | -95.74421 | 21349 ft | 355 kts | 253° |
| 2026-05-04 21:04 | 33.60620 | -95.77163 | 20877 ft | 352 kts | 253° |
| 2026-05-04 21:04 | 33.59726 | -95.79898 | 20417 ft | 350 kts | 253° |
| 2026-05-04 21:04 | 33.58840 | -95.82606 | 19963 ft | 347 kts | 253° |
| 2026-05-04 21:04 | 33.57958 | -95.85301 | 19523 ft | 345 kts | 253° |
| 2026-05-04 21:05 | 33.57084 | -95.87971 | 19057 ft | 343 kts | 253° |
| 2026-05-04 21:05 | 33.56212 | -95.90631 | 18614 ft | 341 kts | 253° |
| 2026-05-04 21:05 | 33.55360 | -95.93231 | 18172 ft | 339 kts | 252° |
| 2026-05-04 21:05 | 33.54501 | -95.95852 | 17730 ft | 337 kts | 252° |
| 2026-05-04 21:06 | 33.53645 | -95.98456 | 17288 ft | 334 kts | 252° |
| 2026-05-04 21:06 | 33.52797 | -96.01038 | 16863 ft | 332 kts | 252° |
| 2026-05-04 21:06 | 33.51952 | -96.03608 | 16420 ft | 330 kts | 252° |
| 2026-05-04 21:06 | 33.51113 | -96.06155 | 16079 ft | 326 kts | 252° |
| 2026-05-04 21:07 | 33.50285 | -96.08668 | 15687 ft | 323 kts | 252° |
| 2026-05-04 21:07 | 33.49460 | -96.11169 | 15284 ft | 321 kts | 252° |
| 2026-05-04 21:07 | 33.48637 | -96.13662 | 14863 ft | 320 kts | 252° |
| 2026-05-04 21:07 | 33.47820 | -96.16134 | 14439 ft | 318 kts | 252° |
| 2026-05-04 21:08 | 33.47008 | -96.18593 | 14026 ft | 317 kts | 252° |
| 2026-05-04 21:08 | 33.46216 | -96.20986 | 13887 ft | 307 kts | 252° |
| 2026-05-04 21:08 | 33.45435 | -96.23342 | 13728 ft | 302 kts | 252° |
| 2026-05-04 21:08 | 33.44623 | -96.25653 | 13550 ft | 301 kts | 246° |
| 2026-05-04 21:09 | 33.43358 | -96.27715 | 13108 ft | 312 kts | 233° |
| 2026-05-04 21:09 | 33.41905 | -96.29662 | 12729 ft | 315 kts | 233° |
| 2026-05-04 21:09 | 33.40451 | -96.31612 | 12351 ft | 313 kts | 233° |
| 2026-05-04 21:09 | 33.39014 | -96.33553 | 11966 ft | 310 kts | 233° |
| 2026-05-04 21:10 | 33.37598 | -96.35487 | 11606 ft | 309 kts | 233° |
| 2026-05-04 21:10 | 33.36190 | -96.37420 | 11356 ft | 303 kts | 232° |
| 2026-05-04 21:10 | 33.34823 | -96.39295 | 11220 ft | 294 kts | 232° |
| 2026-05-04 21:10 | 33.33499 | -96.41113 | 11080 ft | 286 kts | 232° |
| 2026-05-04 21:11 | 33.32409 | -96.43033 | 10854 ft | 276 kts | 251° |
| 2026-05-04 21:11 | 33.31810 | -96.45192 | 10648 ft | 272 kts | 253° |
| 2026-05-04 21:11 | 33.31225 | -96.47341 | 10380 ft | 271 kts | 252° |
| 2026-05-04 21:11 | 33.30635 | -96.49479 | 10099 ft | 270 kts | 252° |
| 2026-05-04 21:12 | 33.30050 | -96.51571 | 9845 ft | 267 kts | 251° |
| 2026-05-04 21:12 | 33.29460 | -96.53670 | 9581 ft | 264 kts | 251° |
| 2026-05-04 21:12 | 33.28879 | -96.55744 | 9326 ft | 262 kts | 251° |
| 2026-05-04 21:12 | 33.28542 | -96.57870 | 9065 ft | 259 kts | 263° |
| 2026-05-04 21:13 | 33.28435 | -96.60011 | 8812 ft | 258 kts | 264° |
| 2026-05-04 21:13 | 33.28370 | -96.62158 | 8585 ft | 259 kts | 264° |
| 2026-05-04 21:13 | 33.28301 | -96.64313 | 8326 ft | 259 kts | 264° |
| 2026-05-04 21:13 | 33.28223 | -96.66468 | 8047 ft | 259 kts | 264° |
| 2026-05-04 21:14 | 33.28136 | -96.68617 | 7801 ft | 259 kts | 263° |
| 2026-05-04 21:14 | 33.28045 | -96.70765 | 7565 ft | 258 kts | 263° |
| 2026-05-04 21:14 | 33.27929 | -96.72897 | 7296 ft | 256 kts | 257° |
| 2026-05-04 21:14 | 33.27256 | -96.74806 | 7020 ft | 248 kts | 230° |
| 2026-05-04 21:15 | 33.26083 | -96.76302 | 6758 ft | 246 kts | 223° |
| 2026-05-04 21:15 | 33.24852 | -96.77724 | 6447 ft | 246 kts | 223° |
| 2026-05-04 21:15 | 33.23622 | -96.79141 | 6182 ft | 243 kts | 223° |
| 2026-05-04 21:15 | 33.22421 | -96.80529 | 5889 ft | 243 kts | 223° |
| 2026-05-04 21:16 | 33.21197 | -96.81958 | 5587 ft | 243 kts | 223° |
| 2026-05-04 21:16 | 33.20021 | -96.83349 | 5337 ft | 239 kts | 222° |
| 2026-05-04 21:16 | 33.18826 | -96.84748 | 4990 ft | 241 kts | 223° |
| 2026-05-04 21:16 | 33.17638 | -96.86150 | 4667 ft | 241 kts | 222° |
| 2026-05-04 21:17 | 33.16445 | -96.87553 | 4400 ft | 241 kts | 223° |
| 2026-05-04 21:17 | 33.15254 | -96.88942 | 4187 ft | 237 kts | 223° |
| 2026-05-04 21:17 | 33.14076 | -96.90321 | 3921 ft | 236 kts | 223° |
| 2026-05-04 21:17 | 33.12932 | -96.91671 | 3881 ft | 226 kts | 223° |
| 2026-05-04 21:18 | 33.11848 | -96.92950 | 3828 ft | 214 kts | 223° |
| 2026-05-04 21:18 | 33.10815 | -96.94176 | 3644 ft | 206 kts | 223° |
| 2026-05-04 21:18 | 33.09807 | -96.95378 | 3315 ft | 204 kts | 223° |
| 2026-05-04 21:18 | 33.08807 | -96.96585 | 2956 ft | 203 kts | 223° |
| 2026-05-04 21:19 | 33.07818 | -96.97786 | 2660 ft | 203 kts | 223° |
| 2026-05-04 21:19 | 33.06817 | -96.99002 | 2354 ft | 208 kts | 223° |
| 2026-05-04 21:19 | 33.05788 | -97.00264 | 2350 ft | 212 kts | 223° |
| 2026-05-04 21:19 | 33.04791 | -97.01493 | 2314 ft | 199 kts | 222° |
| 2026-05-04 21:20 | 33.03698 | -97.02301 | 2301 ft | 184 kts | 187° |
| 2026-05-04 21:20 | 33.02429 | -97.02353 | 2314 ft | 183 kts | 187° |
| 2026-05-04 21:20 | 33.01198 | -97.02567 | 2280 ft | 172 kts | 182° |
| 2026-05-04 21:20 | 33.00055 | -97.02534 | 2218 ft | 159 kts | 180° |
| 2026-05-04 21:21 | 32.99002 | -97.02548 | 2042 ft | 148 kts | 181° |
| 2026-05-04 21:21 | 32.97993 | -97.02564 | 1848 ft | 142 kts | 180° |
| 2026-05-04 21:21 | 32.97010 | -97.02566 | 1651 ft | 141 kts | 179° |
| 2026-05-04 21:21 | 32.96024 | -97.02576 | 1487 ft | 143 kts | 179° |
| 2026-05-04 21:22 | 32.95030 | -97.02567 | 1324 ft | 144 kts | 179° |
| 2026-05-04 21:22 | 32.94014 | -97.02585 | 1090 ft | 147 kts | 179° |
| 2026-05-04 21:22 | 32.93000 | -97.02591 | 871 ft | 141 kts | 179° |
| 2026-05-04 21:22 | 32.92000 | -97.02597 | 683 ft | 146 kts | 180° |
| 2026-05-04 21:23 | 32.90993 | -97.02598 | 568 ft | 140 kts | 179° |
| 2026-05-04 21:23 | 32.90214 | -97.02604 | 574 ft | 81 kts | 180° |
| 2026-05-04 21:23 | 32.89839 | -97.02607 | 567 ft | 40 kts | 180° |
| 2026-05-04 21:23 | 32.89616 | -97.02659 | 573 ft | 21 kts | 204° |
| 2026-05-04 21:24 | 32.89490 | -97.02738 | 568 ft | 20 kts | 210° |
| 2026-05-04 21:24 | 32.89364 | -97.02803 | 572 ft | 20 kts | 184° |
| 2026-05-04 21:24 | 32.89231 | -97.02806 | 575 ft | 19 kts | 180° |
| 2026-05-04 21:24 | 32.89101 | -97.02807 | 573 ft | 18 kts | 180° |
| 2026-05-04 21:25 | 32.88976 | -97.02807 | 572 ft | 18 kts | 179° |
| 2026-05-04 21:25 | 32.88855 | -97.02807 | 578 ft | 17 kts | 180° |
| 2026-05-04 21:25 | 32.88736 | -97.02808 | 579 ft | 18 kts | 180° |
| 2026-05-04 21:25 | 32.88609 | -97.02809 | 571 ft | 19 kts | 181° |
| 2026-05-04 21:26 | 32.88479 | -97.02810 | 570 ft | 18 kts | 180° |
| 2026-05-04 21:26 | 32.88354 | -97.02810 | 571 ft | 18 kts | 180° |
| 2026-05-04 21:26 | 32.88232 | -97.02811 | 571 ft | 18 kts | 180° |
| 2026-05-04 21:26 | 32.88097 | -97.02811 | 568 ft | 20 kts | 180° |
| 2026-05-04 21:27 | 32.87958 | -97.02812 | 570 ft | 20 kts | 180° |
| 2026-05-04 21:27 | 32.87868 | -97.02815 | 573 ft | 19 kts | 184° |
| 2026-05-04 21:27 | 32.87695 | -97.02834 | 573 ft | 18 kts | 185° |
| 2026-05-04 21:27 | 32.87570 | -97.02847 | 571 ft | 18 kts | 186° |
| 2026-05-04 21:28 | 32.87449 | -97.02861 | 570 ft | 17 kts | 185° |
| 2026-05-04 21:28 | 32.87332 | -97.02873 | 572 ft | 17 kts | 185° |
| 2026-05-04 21:28 | 32.87255 | -97.02882 | 568 ft | 16 kts | 185° |
| 2026-05-04 21:28 | 32.87167 | -97.02944 | 571 ft | 15 kts | 251° |
| 2026-05-04 21:29 | 32.87161 | -97.03069 | 566 ft | 15 kts | 270° |
| 2026-05-04 21:29 | 32.87162 | -97.03188 | 569 ft | 14 kts | 270° |
| 2026-05-04 21:29 | 32.87186 | -97.03296 | 570 ft | 14 kts | 313° |
| 2026-05-04 21:29 | 32.87280 | -97.03326 | 567 ft | 15 kts | 356° |
| 2026-05-04 21:30 | 32.87384 | -97.03334 | 571 ft | 16 kts | 356° |
| 2026-05-04 21:30 | 32.87505 | -97.03344 | 569 ft | 19 kts | 356° |
| 2026-05-04 21:30 | 32.87633 | -97.03355 | 573 ft | 18 kts | 356° |
| 2026-05-04 21:30 | 32.87756 | -97.03366 | 574 ft | 17 kts | 355° |
| 2026-05-04 21:31 | 32.87965 | -97.03293 | 575 ft | 16 kts | 7° |
| 2026-05-04 21:31 | 32.88073 | -97.03289 | 575 ft | 15 kts | 0° |
| 2026-05-04 21:31 | 32.88176 | -97.03289 | 580 ft | 14 kts | 1° |
| 2026-05-04 21:32 | 32.88273 | -97.03288 | 575 ft | 14 kts | 359° |
| 2026-05-04 21:32 | 32.88368 | -97.03288 | 578 ft | 13 kts | 360° |
| 2026-05-04 21:32 | 32.88460 | -97.03291 | 574 ft | 14 kts | 347° |
| 2026-05-04 21:32 | 32.88556 | -97.03322 | 579 ft | 14 kts | 356° |
| 2026-05-04 21:33 | 32.88651 | -97.03322 | 581 ft | 13 kts | 0° |
| 2026-05-04 21:33 | 32.88745 | -97.03321 | 582 ft | 14 kts | 0° |
| 2026-05-04 21:33 | 32.88847 | -97.03320 | 582 ft | 14 kts | 0° |
| 2026-05-04 21:33 | 32.88944 | -97.03320 | 581 ft | 14 kts | 359° |
| 2026-05-04 21:34 | 32.89035 | -97.03319 | 582 ft | 13 kts | 1° |
| 2026-05-04 21:34 | 32.89124 | -97.03319 | 582 ft | 13 kts | 360° |
| 2026-05-04 21:34 | 32.89210 | -97.03318 | 582 ft | 13 kts | 0° |
| 2026-05-04 21:34 | 32.89305 | -97.03318 | 583 ft | 15 kts | 0° |
| 2026-05-04 21:35 | 32.89404 | -97.03330 | 585 ft | 14 kts | 315° |
| 2026-05-04 21:35 | 32.89418 | -97.03442 | 586 ft | 14 kts | 271° |
| 2026-05-04 21:35 | 32.89419 | -97.03551 | 586 ft | 13 kts | 270° |
| 2026-05-04 21:35 | 32.89420 | -97.03655 | 586 ft | 13 kts | 271° |
| 2026-05-04 21:36 | 32.89421 | -97.03699 | 586 ft | 2 kts | 271° |
| 2026-05-04 21:36 | 32.89422 | -97.03719 | 586 ft | 2 kts | 280° |
| 2026-05-04 21:36 | 32.89434 | -97.03732 | 586 ft | 2 kts | 337° |
| 2026-05-04 21:36 | 32.89450 | -97.03736 | 586 ft | 2 kts | 351° |
| 2026-05-04 21:37 | 32.89465 | -97.03738 | 586 ft | 2 kts | 353° |
| 2026-05-04 21:37 | 32.89475 | -97.03739 | 586 ft | 0 kts | 355° |